Time;durP1;ratioP1;P1;durP2;ratioP2;P2;SDS_P1;SDS_P2;PMS_P1;PMS_P2;Temp;Humidity;BMP_temperature;BMP_pressure;BME280_temperature;BME280_humidity;BME280_pressure;Samples;Min_cycle;Max_cycle;Signal;HPM_P1;HPM_P2
2022/01/14 00:00:13;;;;;;;75.87;18.23;;;5.80;57.70;;;;;;5078826;28;20476;-90
2022/01/14 00:02:40;;;;;;;44.70;18.53;;;5.80;57.60;;;;;;5074493;28;20465;-90
2022/01/14 00:05:09;;;;;;;45.73;18.50;;;5.50;58.10;;;;;;5048119;28;21173;-88
2022/01/14 00:07:37;;;;;;;44.53;16.37;;;5.50;58.20;;;;;;5075604;28;20480;-89
2022/01/14 00:10:04;;;;;;;63.33;18.60;;;5.70;58.00;;;;;;5072552;28;20542;-89
2022/01/14 00:12:38;;;;;;;29.80;14.60;;;5.60;57.70;;;;;;5075609;28;20456;-88
2022/01/14 00:15:23;;;;;;;91.13;19.17;;;5.70;57.80;;;;;;5073178;28;20445;-88
2022/01/14 00:17:51;;;;;;;51.20;19.07;;;5.50;57.40;;;;;;5073883;28;20495;-88
2022/01/14 00:20:20;;;;;;;41.07;18.33;;;5.20;58.40;;;;;;5071559;28;20486;-88
2022/01/14 00:22:48;;;;;;;60.77;19.33;;;5.00;59.30;;;;;;5071736;28;20973;-88
2022/01/14 00:33:29;;;;;;;55.60;19.17;;;4.70;60.10;;;;;;5059041;28;20444;-88
2022/01/14 00:35:58;;;;;;;119.43;21.90;;;5.00;59.80;;;;;;5072867;28;20455;-88
2022/01/14 00:38:25;;;;;;;36.03;16.40;;;5.30;59.20;;;;;;5074454;28;20483;-88
2022/01/14 00:40:52;;;;;;;49.50;20.30;;;5.50;58.40;;;;;;5074771;28;20475;-89
2022/01/14 00:43:19;;;;;;;43.77;20.27;;;5.40;58.40;;;;;;5071908;28;21034;-86
2022/01/14 00:45:46;;;;;;;71.30;20.87;;;5.40;58.90;;;;;;5071112;28;20472;-88
2022/01/14 00:48:13;;;;;;;46.57;18.70;;;5.60;58.60;;;;;;5057386;28;20458;-89
2022/01/14 00:50:44;;;;;;;46.80;21.10;;;5.70;58.10;;;;;;5075103;28;20512;-88
2022/01/14 00:53:13;;;;;;;47.60;17.90;;;5.70;58.20;;;;;;5075329;28;20466;-89
2022/01/14 00:55:52;;;;;;;55.03;19.70;;;5.60;58.20;;;;;;5059617;28;20458;-88
2022/01/14 01:01:03;;;;;;;46.27;16.70;;;5.60;58.50;;;;;;5076464;28;20478;-88
2022/01/14 01:03:32;;;;;;;35.03;17.13;;;5.80;57.90;;;;;;5075223;28;20456;-89
2022/01/14 01:05:59;;;;;;;55.27;17.00;;;5.90;57.40;;;;;;5080288;28;20507;-88
2022/01/14 01:08:29;;;;;;;34.13;14.73;;;5.80;56.80;;;;;;5056782;28;21018;-88
2022/01/14 01:10:56;;;;;;;61.93;18.13;;;5.60;57.20;;;;;;5076278;28;20478;-88
2022/01/14 01:13:27;;;;;;;31.63;13.83;;;5.50;57.40;;;;;;5061737;28;20622;-89
2022/01/14 01:15:54;;;;;;;60.57;16.97;;;5.70;57.50;;;;;;5057274;28;20456;-89
2022/01/14 01:18:22;;;;;;;35.17;15.67;;;5.50;57.00;;;;;;5078236;28;20475;-88
2022/01/14 01:20:50;;;;;;;42.43;19.37;;;5.10;58.30;;;;;;5078177;28;20472;-88
2022/01/14 01:23:17;;;;;;;40.83;16.27;;;5.30;58.40;;;;;;5078688;28;20456;-89
2022/01/14 01:26:12;;;;;;;35.50;17.77;;;5.30;58.00;;;;;;5074969;28;21048;-89
2022/01/14 01:28:53;;;;;;;89.80;18.40;;;5.40;58.20;;;;;;5076101;28;20443;-88
2022/01/14 01:31:39;;;;;;;34.47;17.60;;;5.40;57.90;;;;;;5076656;28;20960;-85
2022/01/14 01:34:08;;;;;;;32.40;14.70;;;5.30;58.10;;;;;;5076797;28;20821;-89
2022/01/14 01:36:36;;;;;;;33.83;13.47;;;5.40;58.10;;;;;;5078750;28;20901;-88
2022/01/14 01:39:06;;;;;;;31.57;14.07;;;5.40;57.70;;;;;;5077644;28;20546;-88
2022/01/14 01:41:37;;;;;;;33.87;15.97;;;5.50;57.80;;;;;;5077707;28;20563;-88
2022/01/14 01:44:06;;;;;;;35.87;16.70;;;5.50;57.70;;;;;;5076574;28;20462;-89
2022/01/14 01:46:34;;;;;;;30.37;15.50;;;5.40;57.80;;;;;;5077324;28;20487;-89
2022/01/14 01:49:01;;;;;;;35.80;15.43;;;5.60;57.60;;;;;;5056134;28;20620;-88
2022/01/14 01:51:28;;;;;;;34.70;14.77;;;5.40;57.60;;;;;;5076091;28;20492;-89
2022/01/14 01:53:55;;;;;;;28.40;13.70;;;5.20;58.00;;;;;;5075101;28;20639;-88
2022/01/14 01:56:22;;;;;;;39.93;13.20;;;5.20;58.00;;;;;;5074192;28;20448;-89
2022/01/14 01:58:51;;;;;;;38.47;12.37;;;4.70;58.90;;;;;;5073970;28;20457;-88
2022/01/14 02:01:18;;;;;;;29.57;12.23;;;4.90;59.00;;;;;;5055278;28;20466;-88
2022/01/14 02:03:46;;;;;;;34.00;16.30;;;5.20;58.90;;;;;;5058550;28;20632;-88
2022/01/14 02:06:13;;;;;;;29.57;13.10;;;5.30;58.40;;;;;;5074591;28;20476;-87
2022/01/14 02:08:40;;;;;;;32.83;14.60;;;5.30;58.30;;;;;;5046079;28;20451;-87
2022/01/14 02:11:07;;;;;;;27.73;12.80;;;5.20;58.60;;;;;;5076848;28;20472;-88
2022/01/14 02:13:35;;;;;;;28.77;14.40;;;5.10;58.60;;;;;;5072468;28;20483;-89
2022/01/14 02:16:18;;;;;;;32.03;15.33;;;5.20;58.60;;;;;;5073630;28;20976;-88
2022/01/14 02:19:13;;;;;;;26.60;12.97;;;5.20;58.10;;;;;;5076679;28;20951;-88
2022/01/14 02:27:15;;;;;;;32.93;14.80;;;5.40;58.20;;;;;;5069253;28;20487;-88
2022/01/14 02:29:43;;;;;;;42.87;15.07;;;5.30;58.80;;;;;;5071724;28;20482;-88
2022/01/14 02:32:10;;;;;;;45.53;15.43;;;5.30;58.80;;;;;;5074440;28;20459;-88
2022/01/14 02:34:37;;;;;;;33.43;13.43;;;5.40;58.80;;;;;;5078538;28;20830;-89
2022/01/14 02:37:07;;;;;;;28.93;13.90;;;5.60;58.40;;;;;;5072138;28;20566;-88
2022/01/14 02:39:34;;;;;;;29.47;14.90;;;5.60;58.20;;;;;;5055254;28;20962;-88
2022/01/14 02:42:01;;;;;;;36.90;14.70;;;5.70;58.10;;;;;;5075533;28;20863;-88
2022/01/14 02:44:30;;;;;;;34.00;13.73;;;5.60;57.90;;;;;;5062370;28;20664;-88
2022/01/14 02:47:04;;;;;;;45.90;14.60;;;5.60;58.20;;;;;;5021175;28;1131389;-86
2022/01/14 02:49:33;;;;;;;31.60;13.20;;;5.50;58.20;;;;;;5072538;28;20244;-87
2022/01/14 02:52:03;;;;;;;25.00;11.90;;;5.60;58.10;;;;;;5055165;28;20509;-88
2022/01/14 02:54:39;;;;;;;28.57;13.30;;;5.70;57.70;;;;;;5074125;28;20534;-89
2022/01/14 02:57:08;;;;;;;64.80;14.77;;;5.50;57.70;;;;;;5074520;28;20528;-88
2022/01/14 02:59:37;;;;;;;34.73;13.10;;;5.50;57.80;;;;;;5074364;28;20976;-87
2022/01/14 03:02:09;;;;;;;37.37;14.40;;;5.60;57.50;;;;;;5072421;28;20453;-88
2022/01/14 03:04:39;;;;;;;29.60;13.63;;;5.40;58.00;;;;;;5055812;28;20983;-89
2022/01/14 03:07:10;;;;;;;41.63;15.53;;;5.00;58.70;;;;;;5074227;28;20991;-89
2022/01/14 03:09:40;;;;;;;30.33;12.20;;;4.70;59.40;;;;;;5073861;28;20498;-88
2022/01/14 03:12:07;;;;;;;33.40;14.37;;;4.50;60.40;;;;;;5077404;28;20474;-89
2022/01/14 03:14:34;;;;;;;54.37;13.90;;;4.60;60.60;;;;;;5076532;28;20910;-88
2022/01/14 03:17:02;;;;;;;38.60;11.70;;;4.70;60.10;;;;;;5073048;28;20462;-88
2022/01/14 03:19:30;;;;;;;26.63;13.63;;;5.00;59.70;;;;;;5076509;28;20614;-88
2022/01/14 03:22:07;;;;;;;30.30;13.30;;;4.90;59.80;;;;;;5073695;28;20572;-88
2022/01/14 03:27:21;;;;;;;33.13;14.83;;;5.20;58.10;;;;;;5076354;28;20478;-87
2022/01/14 03:29:48;;;;;;;31.13;15.10;;;4.80;59.40;;;;;;5074697;28;20477;-87
2022/01/14 03:32:15;;;;;;;39.37;15.00;;;4.90;59.10;;;;;;5074744;28;20456;-87
2022/01/14 03:34:43;;;;;;;32.13;16.37;;;5.10;58.90;;;;;;5055833;28;20468;-87
2022/01/14 03:37:10;;;;;;;25.80;13.10;;;5.20;58.70;;;;;;5076736;28;20452;-88
2022/01/14 03:39:37;;;;;;;50.17;12.77;;;5.40;58.60;;;;;;5073473;28;20482;-89
2022/01/14 03:42:05;;;;;;;29.57;15.03;;;5.10;58.10;;;;;;5073029;28;20837;-88
2022/01/14 03:44:34;;;;;;;43.83;16.07;;;5.20;58.70;;;;;;5071603;28;20482;-89
2022/01/14 03:47:01;;;;;;;35.33;13.63;;;5.30;58.50;;;;;;5074098;28;20949;-87
2022/01/14 03:49:28;;;;;;;40.63;17.90;;;5.20;58.80;;;;;;5073832;28;20888;-88
2022/01/14 03:51:55;;;;;;;52.47;23.30;;;5.30;58.90;;;;;;5074809;28;20457;-88
2022/01/14 03:54:22;;;;;;;42.57;18.27;;;5.50;58.50;;;;;;5074190;28;20460;-88
2022/01/14 03:56:49;;;;;;;37.20;16.73;;;5.60;57.90;;;;;;5072266;28;20459;-89
2022/01/14 03:59:16;;;;;;;92.50;30.20;;;5.60;57.60;;;;;;5073485;28;20667;-85
2022/01/14 04:01:44;;;;;;;66.67;26.50;;;5.70;57.40;;;;;;5054078;28;20875;-87
2022/01/14 04:04:11;;;;;;;61.27;22.80;;;5.80;57.10;;;;;;5052687;28;20448;-87
2022/01/14 04:06:38;;;;;;;28.33;14.87;;;5.90;56.90;;;;;;5072806;28;20509;-87
2022/01/14 04:09:05;;;;;;;34.17;14.70;;;5.90;56.80;;;;;;5071577;28;20831;-86
2022/01/14 04:11:34;;;;;;;24.00;12.77;;;5.80;56.70;;;;;;5073632;28;20830;-87
2022/01/14 04:15:36;;;;;;;26.57;15.27;;;5.90;56.60;;;;;;5074250;28;20550;-87
2022/01/14 04:16:56;;;;;;;30.43;15.03;;;5.90;56.80;;;;;;5074969;28;20451;-87
2022/01/14 04:19:26;;;;;;;32.27;15.00;;;5.70;57.10;;;;;;5071846;28;20933;-87
2022/01/14 04:21:53;;;;;;;33.60;13.57;;;5.70;57.30;;;;;;5071669;28;20456;-87
2022/01/14 04:24:20;;;;;;;26.17;14.50;;;5.60;57.70;;;;;;5073148;28;20448;-87
2022/01/14 04:26:47;;;;;;;24.70;12.63;;;5.60;57.80;;;;;;5073311;28;20475;-89
2022/01/14 04:29:14;;;;;;;32.93;14.90;;;5.60;57.70;;;;;;5073031;28;20461;-88
2022/01/14 04:31:41;;;;;;;59.07;15.30;;;5.70;57.60;;;;;;5057112;28;20481;-88
2022/01/14 04:34:09;;;;;;;33.30;14.20;;;5.60;57.80;;;;;;5072786;28;20456;-86
2022/01/14 04:36:36;;;;;;;35.43;13.27;;;5.60;57.90;;;;;;5071996;28;21835;-88
2022/01/14 04:39:04;;;;;;;25.93;13.90;;;5.50;57.80;;;;;;5073854;28;20947;-87
2022/01/14 04:41:31;;;;;;;55.33;15.33;;;5.40;58.40;;;;;;5071995;28;20572;-87
2022/01/14 04:43:58;;;;;;;36.83;17.47;;;5.50;58.20;;;;;;5070057;28;20445;-87
2022/01/14 04:49:19;;;;;;;34.60;13.77;;;5.50;58.00;;;;;;5029801;28;20999;-89
2022/01/14 04:51:46;;;;;;;30.83;15.53;;;5.70;57.90;;;;;;5072739;28;20474;-87
2022/01/14 04:54:14;;;;;;;28.73;13.83;;;5.60;57.70;;;;;;5071879;28;20968;-87
2022/01/14 04:56:41;;;;;;;26.67;13.93;;;5.50;57.90;;;;;;5072746;28;20467;-87
2022/01/14 04:59:08;;;;;;;36.47;16.97;;;5.40;58.00;;;;;;5053185;28;20448;-88
2022/01/14 05:01:35;;;;;;;34.80;14.30;;;5.40;58.00;;;;;;5070944;28;20472;-87
2022/01/14 05:04:02;;;;;;;31.67;13.30;;;5.30;58.10;;;;;;5071897;28;20456;-87
2022/01/14 05:06:30;;;;;;;33.00;14.30;;;5.00;58.80;;;;;;5071547;28;20460;-88
2022/01/14 05:08:58;;;;;;;92.13;16.50;;;5.20;58.60;;;;;;5076026;28;20471;-87
2022/01/14 05:11:37;;;;;;;75.43;16.33;;;5.40;58.30;;;;;;5074566;28;20483;-87
2022/01/14 05:14:04;;;;;;;35.77;13.83;;;5.00;58.60;;;;;;5071862;28;20456;-87
2022/01/14 05:16:31;;;;;;;33.97;14.70;;;4.90;59.20;;;;;;5072608;28;20456;-87
2022/01/14 05:18:58;;;;;;;26.93;14.27;;;4.80;59.40;;;;;;5052554;28;20989;-87
2022/01/14 05:21:25;;;;;;;33.83;15.40;;;5.00;59.40;;;;;;5075029;28;20487;-87
2022/01/14 05:23:53;;;;;;;63.90;11.80;;;5.00;59.20;;;;;;5072265;28;20459;-90
2022/01/14 05:26:20;;;;;;;43.47;15.10;;;4.90;58.90;;;;;;5071023;28;20556;-85
2022/01/14 05:28:47;;;;;;;64.77;15.80;;;5.10;58.80;;;;;;5073029;28;20468;-87
2022/01/14 05:31:14;;;;;;;78.43;15.20;;;5.20;58.60;;;;;;5071540;28;20480;-89
2022/01/14 05:33:42;;;;;;;30.13;14.80;;;5.00;58.50;;;;;;5070948;28;20943;-88
2022/01/14 05:36:09;;;;;;;32.97;15.70;;;5.00;59.20;;;;;;5074543;28;20456;-89
2022/01/14 05:38:36;;;;;;;41.40;17.27;;;5.20;58.80;;;;;;5066861;28;20544;-88
2022/01/14 05:41:04;;;;;;;30.77;14.30;;;5.40;58.60;;;;;;5075017;28;20475;-87
2022/01/14 05:43:31;;;;;;;45.43;18.87;;;5.50;58.10;;;;;;5077957;28;20467;-87
2022/01/14 05:45:58;;;;;;;34.03;12.50;;;5.60;57.70;;;;;;5074223;28;21195;-87
2022/01/14 05:48:25;;;;;;;35.97;15.60;;;5.70;57.30;;;;;;5078937;28;20476;-84
2022/01/14 05:50:52;;;;;;;37.87;15.83;;;5.60;57.00;;;;;;5079267;28;20472;-87
2022/01/14 05:53:19;;;;;;;35.03;15.90;;;5.30;57.40;;;;;;5072597;28;20459;-87
2022/01/14 05:55:46;;;;;;;60.40;18.67;;;5.30;57.40;;;;;;5075817;28;20450;-87
2022/01/14 05:58:14;;;;;;;26.97;14.00;;;5.00;57.50;;;;;;5075273;28;20650;-87
2022/01/14 06:00:41;;;;;;;49.53;16.57;;;5.10;58.00;;;;;;5075442;28;20470;-88
2022/01/14 06:03:08;;;;;;;27.10;14.10;;;5.10;58.10;;;;;;5075089;28;20462;-87
2022/01/14 06:05:35;;;;;;;49.60;13.03;;;4.90;58.50;;;;;;5076536;28;20472;-87
2022/01/14 06:08:02;;;;;;;29.60;12.97;;;4.70;58.80;;;;;;5072342;28;20475;-88
2022/01/14 06:10:29;;;;;;;20.70;11.20;;;4.60;59.30;;;;;;5073086;28;20815;-87
2022/01/14 06:12:56;;;;;;;27.03;11.87;;;4.50;59.20;;;;;;5077007;28;20567;-88
2022/01/14 06:15:24;;;;;;;28.57;12.93;;;4.10;59.90;;;;;;5074759;28;20475;-87
2022/01/14 06:17:51;;;;;;;15.77;8.10;;;3.90;60.80;;;;;;5074778;28;20842;-86
2022/01/14 06:20:18;;;;;;;19.63;9.17;;;3.90;61.00;;;;;;5076947;28;21037;-86
2022/01/14 06:22:46;;;;;;;23.47;13.57;;;3.70;61.40;;;;;;5075141;28;20465;-86
2022/01/14 06:25:13;;;;;;;31.67;14.23;;;4.00;61.80;;;;;;5078845;28;20459;-87
2022/01/14 06:27:40;;;;;;;39.90;14.03;;;4.30;61.30;;;;;;5075646;28;20498;-86
2022/01/14 06:30:08;;;;;;;27.80;14.47;;;4.60;60.00;;;;;;5072759;28;20472;-87
2022/01/14 06:32:41;;;;;;;30.07;13.13;;;4.80;59.50;;;;;;5066663;28;20461;-88
2022/01/14 06:35:09;;;;;;;31.53;13.07;;;5.00;58.80;;;;;;5073652;28;21057;-86
2022/01/14 06:37:36;;;;;;;21.30;11.67;;;5.00;57.80;;;;;;5074049;28;20956;-87
2022/01/14 06:40:04;;;;;;;31.47;13.70;;;4.80;58.60;;;;;;5056830;28;20502;-86
2022/01/14 06:42:30;;;;;;;24.77;11.87;;;4.90;58.50;;;;;;5074879;28;20460;-86
2022/01/14 06:44:57;;;;;;;23.30;11.87;;;4.70;58.80;;;;;;5078026;28;20458;-88
2022/01/14 06:47:25;;;;;;;31.73;13.97;;;4.90;58.90;;;;;;5075265;28;20476;-87
2022/01/14 06:49:53;;;;;;;49.73;23.37;;;5.10;58.80;;;;;;5052018;28;20476;-88
2022/01/14 06:52:20;;;;;;;36.90;18.43;;;5.30;58.30;;;;;;5071447;28;20928;-85
2022/01/14 06:54:47;;;;;;;37.37;16.67;;;5.20;57.90;;;;;;5058707;28;21397;-87
2022/01/14 06:57:14;;;;;;;39.03;16.70;;;4.90;58.40;;;;;;5072841;28;20524;-87
2022/01/14 06:59:41;;;;;;;37.17;15.07;;;4.60;58.80;;;;;;5074828;28;20480;-87
2022/01/14 07:02:10;;;;;;;126.13;16.07;;;4.50;59.60;;;;;;5072808;28;20492;-87
2022/01/14 07:04:37;;;;;;;53.33;14.70;;;4.40;59.80;;;;;;5073212;28;20467;-87
2022/01/14 07:07:06;;;;;;;43.53;14.77;;;4.40;60.20;;;;;;5073383;28;20452;-87
2022/01/14 07:09:55;;;;;;;38.87;17.57;;;4.60;59.90;;;;;;5075708;28;20479;-87
2022/01/14 07:12:24;;;;;;;37.50;16.87;;;4.80;59.60;;;;;;5072857;28;20483;-87
2022/01/14 07:14:51;;;;;;;29.53;12.73;;;4.80;59.50;;;;;;5071689;28;20464;-87
2022/01/14 07:17:18;;;;;;;36.83;14.37;;;4.90;59.20;;;;;;5069474;28;20469;-87
2022/01/14 07:19:46;;;;;;;85.47;12.73;;;5.10;58.70;;;;;;5067186;28;20475;-87
2022/01/14 07:22:15;;;;;;;25.30;12.07;;;4.60;58.90;;;;;;5074726;28;20539;-87
2022/01/14 07:24:42;;;;;;;32.57;14.10;;;4.80;59.00;;;;;;5074838;28;20938;-88
2022/01/14 07:27:09;;;;;;;25.73;14.43;;;5.00;58.80;;;;;;5071798;28;20456;-87
2022/01/14 07:29:36;;;;;;;35.57;13.40;;;5.00;58.70;;;;;;5052894;28;20474;-87
2022/01/14 07:32:03;;;;;;;29.10;14.47;;;5.10;58.40;;;;;;5072091;28;20991;-86
2022/01/14 07:34:30;;;;;;;36.63;15.70;;;5.20;58.40;;;;;;5053906;28;20463;-87
2022/01/14 07:36:57;;;;;;;71.47;13.97;;;5.30;58.20;;;;;;5070311;28;20651;-85
2022/01/14 07:39:26;;;;;;;25.20;12.30;;;5.30;57.60;;;;;;5071238;28;20453;-87
2022/01/14 07:41:53;;;;;;;28.27;14.57;;;4.80;58.50;;;;;;5068600;28;20488;-88
2022/01/14 07:44:21;;;;;;;60.63;20.90;;;4.60;59.00;;;;;;5067760;28;20921;-86
2022/01/14 07:46:48;;;;;;;25.77;13.50;;;4.60;59.20;;;;;;5070305;28;20513;-85
2022/01/14 07:49:16;;;;;;;28.67;14.10;;;4.80;58.90;;;;;;5070991;28;20495;-89
2022/01/14 07:51:43;;;;;;;45.70;22.57;;;5.00;58.50;;;;;;5069932;28;20476;-87
2022/01/14 07:54:10;;;;;;;26.90;15.13;;;5.20;58.00;;;;;;5067715;28;20455;-86
2022/01/14 07:56:45;;;;;;;27.70;13.70;;;5.20;57.50;;;;;;5070951;28;20464;-87
2022/01/14 07:59:13;;;;;;;26.37;12.43;;;5.30;57.50;;;;;;5070933;28;20451;-86
2022/01/14 08:01:42;;;;;;;22.97;13.47;;;5.30;57.10;;;;;;5073030;28;20479;-88
2022/01/14 08:04:09;;;;;;;24.73;13.57;;;5.20;58.00;;;;;;5070134;28;20463;-86
2022/01/14 08:06:44;;;;;;;25.70;13.17;;;5.10;57.20;;;;;;5071082;28;20451;-88
2022/01/14 08:09:11;;;;;;;29.80;12.30;;;4.90;57.60;;;;;;5070986;28;20751;-87
2022/01/14 08:11:40;;;;;;;23.17;12.00;;;4.90;58.00;;;;;;5069397;28;20535;-89
2022/01/14 08:14:06;;;;;;;22.83;11.33;;;4.70;57.80;;;;;;5068194;28;20492;-87
2022/01/14 08:16:34;;;;;;;19.93;12.20;;;4.80;58.00;;;;;;5049206;28;20456;-87
2022/01/14 08:19:00;;;;;;;25.13;13.00;;;5.10;57.70;;;;;;5069587;28;20902;-87
2022/01/14 08:21:27;;;;;;;31.80;13.30;;;5.30;57.20;;;;;;5074984;28;20474;-88
2022/01/14 08:23:55;;;;;;;27.00;15.03;;;5.40;56.30;;;;;;5069429;28;20459;-88
2022/01/14 08:26:22;;;;;;;24.43;12.60;;;5.30;56.30;;;;;;5069424;28;20469;-89
2022/01/14 08:28:51;;;;;;;21.77;11.23;;;5.40;56.40;;;;;;5048719;28;20924;-88
2022/01/14 08:31:18;;;;;;;26.87;14.60;;;5.50;56.40;;;;;;5069629;28;20483;-87
2022/01/14 08:33:46;;;;;;;25.03;12.67;;;5.50;56.30;;;;;;5068270;28;20697;-89
2022/01/14 08:36:13;;;;;;;23.40;11.80;;;5.30;56.60;;;;;;5070780;28;20994;-86
2022/01/14 08:38:40;;;;;;;27.67;13.00;;;5.20;56.90;;;;;;5071407;28;20929;-86
2022/01/14 08:41:08;;;;;;;24.63;13.53;;;4.90;57.50;;;;;;5068049;28;20476;-85
2022/01/14 08:43:35;;;;;;;22.63;13.30;;;5.00;57.60;;;;;;5069822;28;20461;-86
2022/01/14 08:46:03;;;;;;;26.50;13.20;;;5.10;57.50;;;;;;5069042;28;20815;-88
2022/01/14 08:48:31;;;;;;;21.53;10.63;;;5.20;56.90;;;;;;5050342;28;20921;-88
2022/01/14 08:50:58;;;;;;;19.50;12.37;;;5.10;57.30;;;;;;5068541;28;20483;-88
2022/01/14 08:53:25;;;;;;;22.60;12.70;;;5.20;57.00;;;;;;5070195;28;20955;-85
2022/01/14 08:55:52;;;;;;;24.67;12.97;;;5.20;56.80;;;;;;5071830;28;20456;-87
2022/01/14 08:58:19;;;;;;;26.33;12.10;;;5.00;57.00;;;;;;5068449;28;20537;-87
2022/01/14 09:00:48;;;;;;;28.70;12.93;;;5.00;57.40;;;;;;5068694;28;20658;-88
2022/01/14 09:03:16;;;;;;;57.60;22.00;;;5.20;57.10;;;;;;5066909;28;20460;-88
2022/01/14 09:05:43;;;;;;;31.83;14.43;;;5.30;57.00;;;;;;5066794;28;20895;-88
2022/01/14 09:08:11;;;;;;;29.07;14.87;;;5.30;57.10;;;;;;5069124;28;20472;-87
2022/01/14 09:10:38;;;;;;;20.30;12.70;;;5.10;57.10;;;;;;5069206;28;20471;-87
2022/01/14 09:13:06;;;;;;;24.73;12.37;;;4.90;57.80;;;;;;5050805;28;20487;-87
2022/01/14 09:15:33;;;;;;;31.00;14.33;;;4.90;58.00;;;;;;5072626;28;20470;-87
2022/01/14 09:18:00;;;;;;;31.57;16.80;;;5.10;57.80;;;;;;5054271;28;20981;-87
2022/01/14 09:20:28;;;;;;;111.80;15.60;;;4.80;57.60;;;;;;5073211;28;20887;-88
2022/01/14 09:22:57;;;;;;;27.10;13.33;;;4.70;58.40;;;;;;5070276;28;21341;-86
2022/01/14 09:25:25;;;;;;;24.90;12.57;;;4.90;58.40;;;;;;5074297;28;20813;-87
2022/01/14 09:27:53;;;;;;;27.20;15.77;;;5.00;57.80;;;;;;5072952;28;20910;-86
2022/01/14 09:30:20;;;;;;;22.63;11.23;;;5.10;57.80;;;;;;5077435;28;21091;-87
2022/01/14 09:32:48;;;;;;;44.47;18.73;;;4.80;57.70;;;;;;5054462;28;20452;-86
2022/01/14 09:35:15;;;;;;;29.77;14.30;;;4.70;58.60;;;;;;5072560;28;20495;-87
2022/01/14 09:37:45;;;;;;;23.73;13.43;;;4.80;58.50;;;;;;5073897;28;20463;-87
2022/01/14 09:40:14;;;;;;;21.20;10.87;;;4.90;58.10;;;;;;5072212;28;20468;-88
2022/01/14 09:42:42;;;;;;;30.37;13.00;;;4.80;58.00;;;;;;5054671;28;21514;-86
2022/01/14 09:45:09;;;;;;;38.47;15.67;;;4.80;58.10;;;;;;5074980;28;20467;-88
2022/01/14 09:47:39;;;;;;;42.60;13.97;;;4.80;58.30;;;;;;5075040;28;20464;-86
2022/01/14 09:50:07;;;;;;;34.67;16.43;;;4.70;58.60;;;;;;5075279;28;20484;-87
2022/01/14 09:52:35;;;;;;;42.03;15.07;;;4.50;59.00;;;;;;5053483;28;21030;-88
2022/01/14 09:55:04;;;;;;;32.30;13.37;;;4.60;59.00;;;;;;5074043;28;20467;-88
2022/01/14 09:57:31;;;;;;;29.13;15.17;;;4.80;58.90;;;;;;5073985;28;20487;-89
2022/01/14 09:59:58;;;;;;;35.27;19.03;;;4.90;58.80;;;;;;5056594;28;21218;-86
2022/01/14 10:02:32;;;;;;;30.60;17.97;;;5.00;58.50;;;;;;5071945;28;20453;-86
2022/01/14 10:05:00;;;;;;;35.37;16.73;;;5.10;58.60;;;;;;5057191;28;20451;-87
2022/01/14 10:07:27;;;;;;;36.10;14.70;;;5.40;58.30;;;;;;5078417;28;20520;-89
2022/01/14 10:09:58;;;;;;;38.17;20.10;;;5.60;57.60;;;;;;5073600;28;20482;-87
2022/01/14 10:12:31;;;;;;;39.60;19.73;;;5.60;57.40;;;;;;5074855;28;20537;-85
2022/01/14 10:15:00;;;;;;;37.13;16.90;;;5.60;57.50;;;;;;5070650;28;20964;-88
2022/01/14 10:17:36;;;;;;;38.30;19.90;;;5.50;57.70;;;;;;5073891;28;20971;-89
2022/01/14 10:20:05;;;;;;;36.80;19.10;;;5.70;57.20;;;;;;5058982;28;20459;-88
2022/01/14 10:22:34;;;;;;;31.00;17.30;;;5.70;57.00;;;;;;5065094;28;20454;-87
2022/01/14 10:25:05;;;;;;;34.53;17.70;;;5.70;57.30;;;;;;5076658;28;20445;-89
2022/01/14 10:27:36;;;;;;;31.67;17.47;;;5.70;57.20;;;;;;5082517;28;20509;-87
2022/01/14 10:30:12;;;;;;;27.00;15.93;;;5.80;57.00;;;;;;5076531;28;20507;-87
2022/01/14 10:32:40;;;;;;;29.37;15.13;;;5.80;57.00;;;;;;5079409;28;20948;-87
2022/01/14 10:35:09;;;;;;;28.13;14.90;;;6.00;56.90;;;;;;5081017;28;20451;-88
2022/01/14 10:37:37;;;;;;;27.90;15.43;;;6.00;56.80;;;;;;5060943;28;20552;-87
2022/01/14 10:40:06;;;;;;;25.27;13.17;;;6.00;56.70;;;;;;5079161;28;20567;-87
2022/01/14 10:42:35;;;;;;;24.50;13.90;;;6.20;56.60;;;;;;5074764;28;20458;-88
2022/01/14 10:45:22;;;;;;;30.17;15.23;;;6.20;56.40;;;;;;5061025;28;20520;-89
2022/01/14 10:47:55;;;;;;;25.43;13.47;;;6.30;56.50;;;;;;5041734;28;20452;-88
2022/01/14 10:50:35;;;;;;;29.20;14.50;;;6.30;56.70;;;;;;5072596;28;20483;-88
2022/01/14 10:53:04;;;;;;;36.83;17.70;;;6.30;56.70;;;;;;5039900;28;20464;-89
2022/01/14 10:55:34;;;;;;;33.80;16.90;;;6.30;56.90;;;;;;5076547;28;20491;-90
2022/01/14 10:58:04;;;;;;;28.97;15.00;;;6.30;57.10;;;;;;5073963;28;20518;-89
2022/01/14 11:00:40;;;;;;;34.20;15.27;;;6.40;56.80;;;;;;5074938;28;20993;-89
2022/01/14 11:03:07;;;;;;;25.40;15.17;;;6.50;56.50;;;;;;5074034;28;20521;-91
2022/01/14 11:05:35;;;;;;;28.67;14.27;;;6.50;56.40;;;;;;5072110;28;20452;-90
2022/01/14 11:08:03;;;;;;;21.50;13.23;;;6.50;56.50;;;;;;5071813;28;20987;-89
2022/01/14 11:10:32;;;;;;;21.70;13.27;;;6.60;57.30;;;;;;5062257;28;20502;-90
2022/01/14 11:13:00;;;;;;;21.63;12.73;;;6.70;56.60;;;;;;5075564;28;20453;-89
2022/01/14 11:15:32;;;;;;;21.40;13.33;;;6.80;56.60;;;;;;5074665;28;20460;-91
2022/01/14 11:18:02;;;;;;;23.37;13.10;;;6.90;56.50;;;;;;5070802;28;20975;-88
2022/01/14 11:20:33;;;;;;;25.83;14.17;;;7.00;56.40;;;;;;5043083;28;20558;-88
2022/01/14 11:23:15;;;;;;;28.83;13.87;;;7.10;56.30;;;;;;5074881;28;20484;-88
2022/01/14 11:25:53;;;;;;;23.93;15.40;;;7.10;56.20;;;;;;5072323;28;20626;-88
2022/01/14 11:28:28;;;;;;;21.90;13.90;;;7.10;56.40;;;;;;5076669;28;20965;-89
2022/01/14 11:30:56;;;;;;;23.27;13.00;;;7.10;56.40;;;;;;5074811;28;20483;-87
2022/01/14 11:33:38;;;;;;;24.00;13.60;;;7.20;56.40;;;;;;5072608;28;20456;-89
2022/01/14 11:36:07;;;;;;;30.53;15.33;;;7.30;56.30;;;;;;5071504;28;20986;-88
2022/01/14 11:38:38;;;;;;;28.10;15.47;;;7.30;56.20;;;;;;5073324;28;20544;-89
2022/01/14 11:41:06;;;;;;;25.10;16.53;;;7.30;56.30;;;;;;5060947;28;20464;-90
2022/01/14 11:43:42;;;;;;;35.00;19.97;;;7.30;56.30;;;;;;5077451;28;20483;-89
2022/01/14 11:46:12;;;;;;;31.17;16.20;;;7.20;56.40;;;;;;5052889;28;20912;-88
2022/01/14 11:48:44;;;;;;;20.10;13.20;;;7.20;56.70;;;;;;5073092;28;20491;-88
2022/01/14 11:51:14;;;;;;;25.00;13.73;;;7.30;56.90;;;;;;5073532;28;20526;-88
2022/01/14 11:53:48;;;;;;;23.53;14.93;;;7.40;57.00;;;;;;5072967;28;20447;-87
2022/01/14 11:56:45;;;;;;;23.63;15.27;;;7.50;57.20;;;;;;5076589;28;20540;-88
2022/01/14 11:59:45;;;;;;;25.60;15.20;;;7.70;57.40;;;;;;5073617;28;20525;-90
2022/01/14 12:02:34;;;;;;;18.50;12.70;;;7.90;57.30;;;;;;5054369;28;20460;-89
2022/01/14 12:05:06;;;;;;;19.17;11.23;;;8.10;57.00;;;;;;5075455;28;20463;-90
2022/01/14 12:08:22;;;;;;;17.73;9.70;;;8.20;56.90;;;;;;5073512;28;20449;-88
2022/01/14 12:10:52;;;;;;;14.77;9.80;;;8.40;56.50;;;;;;5071079;28;20786;-89
2022/01/14 12:13:23;;;;;;;15.17;9.50;;;8.60;56.50;;;;;;5070768;28;20551;-91
2022/01/14 12:15:57;;;;;;;14.90;8.73;;;8.80;56.10;;;;;;5072250;28;20457;-88
2022/01/14 12:19:07;;;;;;;19.93;10.30;;;9.10;55.40;;;;;;5073515;28;20450;-90
2022/01/14 12:21:58;;;;;;;23.80;10.70;;;9.40;55.10;;;;;;4998174;28;20482;-90
2022/01/14 12:24:38;;;;;;;15.60;9.93;;;9.70;55.00;;;;;;5069381;28;20456;-90
2022/01/14 12:27:33;;;;;;;15.90;10.30;;;9.90;54.40;;;;;;5061651;28;20543;-91
2022/01/14 12:30:06;;;;;;;18.50;13.37;;;10.20;53.00;;;;;;5058527;28;20490;-90
2022/01/14 12:32:36;;;;;;;25.87;13.73;;;10.10;53.00;;;;;;5053374;28;20849;-90
2022/01/14 12:35:07;;;;;;;21.57;13.27;;;10.10;53.10;;;;;;5053612;28;20461;-90
2022/01/14 12:37:39;;;;;;;18.67;12.03;;;10.20;53.20;;;;;;5062060;28;20458;-90
2022/01/14 12:40:12;;;;;;;47.70;22.70;;;10.00;52.90;;;;;;5043670;28;20480;-92
2022/01/14 12:42:41;;;;;;;45.60;20.37;;;10.00;53.60;;;;;;5072738;28;21050;-89
2022/01/14 12:45:11;;;;;;;27.90;14.90;;;10.30;53.60;;;;;;5054461;28;20449;-93
2022/01/14 12:47:41;;;;;;;37.50;17.03;;;10.50;52.60;;;;;;5054529;28;20473;-90
2022/01/14 12:50:11;;;;;;;25.80;13.77;;;10.60;52.20;;;;;;5060420;28;20999;-91
2022/01/14 12:52:50;;;;;;;23.87;13.27;;;10.70;52.50;;;;;;5031940;28;20455;-90
2022/01/14 12:55:19;;;;;;;25.00;14.33;;;10.90;52.20;;;;;;5074925;28;20535;-89
2022/01/14 12:57:46;;;;;;;29.53;14.97;;;11.20;51.70;;;;;;5067103;28;20490;-91
2022/01/14 13:00:16;;;;;;;25.90;12.63;;;11.40;51.00;;;;;;5073487;28;20481;-91
2022/01/14 13:02:43;;;;;;;21.00;13.13;;;11.60;50.90;;;;;;5042455;28;20553;-89
2022/01/14 13:05:15;;;;;;;23.43;12.93;;;11.80;50.80;;;;;;5050296;28;20541;-89
2022/01/14 13:07:44;;;;;;;18.63;11.10;;;12.00;50.40;;;;;;5076761;28;20538;-88
2022/01/14 13:10:14;;;;;;;20.20;14.03;;;12.10;49.70;;;;;;5074871;28;20479;-87